Time;durP1;ratioP1;P1;durP2;ratioP2;P2;SDS_P1;SDS_P2;PMS_P1;PMS_P2;Temp;Humidity;BMP_temperature;BMP_pressure;BME280_temperature;BME280_humidity;BME280_pressure;Samples;Min_cycle;Max_cycle;Signal;HPM_P1;HPM_P2
2021/11/07 00:01:14;;;;;;;15.50;10.10;;;;;;;6.48;74.39;100944.93;85469;1322;95357;-73
2021/11/07 00:03:29;;;;;;;17.30;10.40;;;;;;;6.47;74.45;100936.52;85513;1322;81806;-74
2021/11/07 00:05:42;;;;;;;18.80;10.90;;;;;;;6.45;74.45;100932.77;85514;1321;80201;-74
2021/11/07 00:08:07;;;;;;;14.30;9.80;;;;;;;6.43;74.53;100935.65;85533;1322;97290;-75
2021/11/07 00:10:25;;;;;;;13.10;9.90;;;;;;;6.40;74.60;100932.59;85541;1326;86645;-74
2021/11/07 00:12:41;;;;;;;17.60;10.10;;;;;;;6.36;74.55;100927.94;85490;1322;95639;-74
2021/11/07 00:14:53;;;;;;;14.60;11.10;;;;;;;6.33;74.71;100930.77;85497;1322;81558;-74
2021/11/07 00:17:05;;;;;;;18.30;11.30;;;;;;;6.28;74.53;100923.39;85377;1323;81036;-73
2021/11/07 00:19:25;;;;;;;14.80;10.30;;;;;;;6.24;74.63;100925.05;85388;1319;97090;-72
2021/11/07 00:21:44;;;;;;;19.10;11.00;;;;;;;6.21;74.70;100920.26;85448;1321;86260;-74
2021/11/07 00:24:02;;;;;;;16.10;10.60;;;;;;;6.19;74.80;100914.28;85485;1323;94403;-73
2021/11/07 00:26:19;;;;;;;17.10;10.50;;;;;;;6.17;74.86;100916.64;85651;1319;79602;-75
2021/11/07 00:28:34;;;;;;;18.80;11.10;;;;;;;6.12;74.88;100906.39;85598;1319;83251;-75
2021/11/07 00:30:51;;;;;;;19.40;11.10;;;;;;;6.09;74.90;100899.91;85549;1320;100177;-74
2021/11/07 00:33:17;;;;;;;17.50;10.90;;;;;;;6.05;75.01;100904.35;85594;1319;88500;-74
2021/11/07 00:35:48;;;;;;;18.40;11.20;;;;;;;6.02;75.03;100902.88;85588;1319;94361;-73
2021/11/07 00:37:59;;;;;;;20.20;11.30;;;;;;;5.95;75.30;100903.96;85536;1325;79407;-73
2021/11/07 00:40:20;;;;;;;18.90;12.10;;;;;;;5.90;75.22;100903.80;85588;1319;80413;-73
2021/11/07 00:42:43;;;;;;;18.10;11.50;;;;;;;5.92;75.21;100895.75;85585;1319;99472;-74
2021/11/07 00:44:56;;;;;;;19.90;12.80;;;;;;;5.89;75.30;100892.34;85545;1319;89183;-74
2021/11/07 00:47:15;;;;;;;21.30;13.20;;;;;;;5.86;75.32;100889.55;85573;1323;94754;-75
2021/11/07 00:49:33;;;;;;;21.20;12.40;;;;;;;5.85;75.27;100890.58;85584;1319;78970;-72
2021/11/07 00:51:47;;;;;;;16.90;11.70;;;;;;;5.82;75.29;100891.59;85364;1326;84001;-74
2021/11/07 00:56:34;;;;;;;19.00;11.60;;;;;;;5.79;75.47;100887.20;85578;1322;86727;-75
2021/11/07 00:58:54;;;;;;;16.60;11.60;;;;;;;5.78;75.35;100885.27;85557;1323;95425;-75
2021/11/07 01:01:08;;;;;;;20.70;12.60;;;;;;;5.76;75.42;100881.52;85534;1319;78900;-74
2021/11/07 01:03:19;;;;;;;18.80;10.60;;;;;;;5.74;75.52;100874.95;85571;1319;79788;-75
2021/11/07 01:05:33;;;;;;;19.60;12.60;;;;;;;5.69;75.42;100872.29;85574;1319;100048;-75
2021/11/07 01:07:41;;;;;;;19.00;11.50;;;;;;;5.66;75.44;100871.86;85579;1319;89209;-74
2021/11/07 01:09:51;;;;;;;19.00;12.30;;;;;;;5.65;75.62;100865.14;85571;1322;95525;-74
2021/11/07 01:12:04;;;;;;;17.70;12.50;;;;;;;5.65;75.57;100870.16;85559;1320;82836;-75
2021/11/07 01:14:15;;;;;;;17.00;12.20;;;;;;;5.63;75.55;100867.45;85582;1325;82552;-75
2021/11/07 01:16:24;;;;;;;17.50;11.50;;;;;;;5.63;75.67;100862.16;85575;1319;99216;-74
2021/11/07 01:18:36;;;;;;;19.60;12.60;;;;;;;5.62;75.60;100856.91;85538;1319;88898;-73
2021/11/07 01:20:45;;;;;;;19.20;12.90;;;;;;;5.60;75.70;100856.00;85563;1324;94663;-74
2021/11/07 01:22:59;;;;;;;19.70;12.60;;;;;;;5.58;75.60;100850.86;85576;1319;78562;-75
2021/11/07 01:25:12;;;;;;;19.30;13.40;;;;;;;5.56;75.77;100849.09;85563;1322;83239;-75
2021/11/07 01:27:28;;;;;;;17.90;11.90;;;;;;;5.57;75.81;100843.45;85594;1319;99820;-73
2021/11/07 01:29:44;;;;;;;18.40;12.40;;;;;;;5.55;76.04;100837.02;85584;1323;87900;-73
2021/11/07 01:31:55;;;;;;;18.60;12.20;;;;;;;5.55;75.84;100829.29;85598;1326;95035;-74
2021/11/07 01:34:13;;;;;;;19.80;14.00;;;;;;;5.56;76.06;100829.27;85544;1323;80631;-74
2021/11/07 01:36:33;;;;;;;19.80;13.10;;;;;;;5.57;75.99;100828.10;85586;1319;80227;-74
2021/11/07 01:38:48;;;;;;;18.60;12.80;;;;;;;5.55;76.00;100822.85;85580;1319;98037;-74
2021/11/07 01:41:03;;;;;;;19.40;12.60;;;;;;;5.54;75.89;100827.23;85607;1319;88598;-75
2021/11/07 01:43:15;;;;;;;18.10;12.30;;;;;;;5.52;76.08;100824.63;85564;1319;94428;-75
2021/11/07 01:45:30;;;;;;;18.20;12.90;;;;;;;5.51;75.92;100828.30;85583;1322;79232;-74
2021/11/07 01:47:47;;;;;;;18.50;13.10;;;;;;;5.51;76.21;100822.05;85586;1319;81069;-74
2021/11/07 01:50:03;;;;;;;19.70;13.90;;;;;;;5.51;76.21;100822.55;85438;1326;100204;-73
2021/11/07 01:52:14;;;;;;;17.50;12.00;;;;;;;5.50;76.21;100813.20;85580;1319;88422;-75
2021/11/07 01:54:26;;;;;;;18.40;12.50;;;;;;;5.49;76.24;100809.21;85590;1319;92737;-73
2021/11/07 01:56:35;;;;;;;18.00;13.10;;;;;;;5.48;76.14;100803.94;85546;1314;78298;-76
2021/11/07 01:58:48;;;;;;;20.60;13.80;;;;;;;5.44;76.06;100803.08;85571;1319;81310;-75
2021/11/07 02:01:01;;;;;;;22.10;15.10;;;;;;;5.41;76.26;100799.40;85573;1320;99816;-76
2021/11/07 02:03:14;;;;;;;21.30;13.30;;;;;;;5.38;75.98;100795.73;85566;1313;89078;-75
2021/11/07 02:05:26;;;;;;;20.60;14.10;;;;;;;5.34;76.23;100795.74;85570;1326;93705;-73
2021/11/07 02:07:36;;;;;;;21.30;14.30;;;;;;;5.32;76.28;100791.30;85564;1326;79298;-74
2021/11/07 02:09:48;;;;;;;19.00;14.10;;;;;;;5.33;76.31;100782.87;85570;1319;83350;-74
2021/11/07 02:11:58;;;;;;;22.40;14.20;;;;;;;5.32;76.41;100778.27;85600;1319;96985;-74
2021/11/07 02:14:10;;;;;;;20.40;13.10;;;;;;;5.30;76.18;100776.11;85557;1323;87715;-74
2021/11/07 02:16:23;;;;;;;19.10;12.80;;;;;;;5.28;76.36;100769.02;85557;1320;94401;-75
2021/11/07 02:18:35;;;;;;;18.50;13.20;;;;;;;5.26;76.21;100766.39;85540;1321;78247;-75
2021/11/07 02:20:48;;;;;;;20.60;14.40;;;;;;;5.23;76.37;100763.63;85590;1322;82058;-75
2021/11/07 02:23:05;;;;;;;19.10;13.20;;;;;;;5.22;76.41;100758.34;85583;1319;100121;-74
2021/11/07 02:25:18;;;;;;;18.80;13.50;;;;;;;5.20;76.52;100756.23;85602;1323;87081;-65
2021/11/07 02:27:31;;;;;;;19.00;13.40;;;;;;;5.19;76.53;100750.67;85548;1319;94579;-72
2021/11/07 02:29:44;;;;;;;21.40;13.00;;;;;;;5.16;76.52;100749.63;85497;1326;79188;-72
2021/11/07 02:31:56;;;;;;;17.40;13.10;;;;;;;5.12;76.40;100744.12;85515;1322;83665;-73
2021/11/07 02:34:05;;;;;;;16.90;12.10;;;;;;;5.10;76.43;100739.67;85572;1319;99307;-75
2021/11/07 02:36:19;;;;;;;18.80;13.40;;;;;;;5.07;76.53;100738.61;85540;1319;88349;-74
2021/11/07 02:38:28;;;;;;;19.70;13.10;;;;;;;5.04;76.59;100737.12;85579;1319;95686;-73
2021/11/07 02:40:42;;;;;;;20.00;13.20;;;;;;;5.01;76.65;100732.88;85585;1319;81401;-74
2021/11/07 02:42:53;;;;;;;21.50;14.90;;;;;;;5.01;76.56;100729.89;85594;1320;80605;-73
2021/11/07 02:45:07;;;;;;;19.80;13.80;;;;;;;4.99;76.51;100723.95;85605;1319;97459;-75
2021/11/07 02:47:19;;;;;;;20.80;14.20;;;;;;;4.96;76.59;100721.23;85605;1319;86424;-75
2021/11/07 02:49:31;;;;;;;17.10;12.90;;;;;;;4.91;76.59;100718.17;85573;1319;95383;-73
2021/11/07 02:51:41;;;;;;;19.20;13.60;;;;;;;4.87;76.60;100718.92;85576;1319;79415;-73
2021/11/07 02:53:50;;;;;;;18.80;13.20;;;;;;;4.86;76.63;100714.95;85572;1319;80838;-76
2021/11/07 02:55:59;;;;;;;19.70;13.60;;;;;;;4.83;76.65;100715.52;85540;1319;97076;-74
2021/11/07 02:58:09;;;;;;;18.60;12.80;;;;;;;4.83;76.76;100701.86;85531;1322;89095;-74
2021/11/07 03:00:23;;;;;;;19.10;12.50;;;;;;;4.82;76.64;100697.09;85541;1319;95429;-75
2021/11/07 03:02:32;;;;;;;18.70;12.90;;;;;;;4.82;76.90;100700.31;85567;1313;76597;-76
2021/11/07 03:04:44;;;;;;;18.50;12.80;;;;;;;4.82;76.93;100709.92;85532;1325;83995;-75
2021/11/07 03:06:57;;;;;;;17.80;12.50;;;;;;;4.79;76.91;100700.42;85546;1327;98199;-76
2021/11/07 03:09:12;;;;;;;20.00;13.10;;;;;;;4.77;76.82;100697.96;85507;1322;88885;-74
2021/11/07 03:11:22;;;;;;;18.30;12.70;;;;;;;4.74;76.89;100699.93;85488;1325;95374;-73
2021/11/07 03:13:31;;;;;;;19.00;13.20;;;;;;;4.72;76.93;100695.89;85514;1321;81007;-74
2021/11/07 03:15:44;;;;;;;19.10;12.00;;;;;;;4.72;76.76;100698.92;85483;1325;81542;-74
2021/11/07 03:17:53;;;;;;;18.70;12.20;;;;;;;4.71;76.73;100694.39;85493;1323;100254;-74
2021/11/07 03:20:02;;;;;;;17.20;12.40;;;;;;;4.67;76.99;100689.23;85479;1326;87472;-75
2021/11/07 03:22:15;;;;;;;18.50;12.60;;;;;;;4.65;77.02;100686.40;85515;1323;94223;-75
2021/11/07 03:24:24;;;;;;;19.80;12.60;;;;;;;4.62;77.01;100682.39;85508;1322;81826;-74
2021/11/07 03:26:35;;;;;;;18.00;13.30;;;;;;;4.59;76.83;100678.61;85419;1326;80869;-75
2021/11/07 03:28:49;;;;;;;18.70;12.70;;;;;;;4.55;77.03;100675.90;85490;1325;99518;-74
2021/11/07 03:31:01;;;;;;;;;;;;;;;4.53;76.87;100666.00;85529;1322;88896;-75
2021/11/07 03:33:18;;;;;;;18.60;12.40;;;;;;;4.48;76.92;100665.55;85532;1325;94694;-74
2021/11/07 03:35:31;;;;;;;20.90;12.30;;;;;;;4.44;77.10;100660.94;85485;1325;78194;-73
2021/11/07 03:37:45;;;;;;;19.60;12.10;;;;;;;4.42;77.05;100660.74;85541;1326;82827;-75
2021/11/07 03:39:53;;;;;;;;;;;;;;;4.41;77.02;100659.27;85528;1325;98622;-74
2021/11/07 03:42:10;;;;;;;19.00;12.10;;;;;;;4.38;77.11;100648.54;85489;1322;88878;-74
2021/11/07 03:44:22;;;;;;;18.80;12.00;;;;;;;4.35;77.01;100644.01;85350;1322;95296;-73
2021/11/07 03:46:34;;;;;;;22.40;12.40;;;;;;;4.31;77.14;100641.65;85445;1322;80397;-75
2021/11/07 03:48:47;;;;;;;20.70;12.60;;;;;;;4.28;76.98;100635.90;85517;1325;82710;-74
2021/11/07 03:50:57;;;;;;;17.60;11.50;;;;;;;4.26;76.90;100631.57;85519;1322;98389;-75
2021/11/07 03:53:09;;;;;;;19.10;12.50;;;;;;;4.25;77.10;100627.14;85471;1322;88291;-73
2021/11/07 03:55:21;;;;;;;20.70;11.90;;;;;;;4.22;77.24;100622.73;85501;1320;93861;-74
2021/11/07 03:57:33;;;;;;;17.80;11.80;;;;;;;4.22;77.17;100620.27;85488;1325;79450;-74
2021/11/07 03:59:45;;;;;;;18.30;11.80;;;;;;;4.18;77.30;100609.16;85526;1325;80495;-74
2021/11/07 04:01:57;;;;;;;17.20;12.20;;;;;;;4.15;77.24;100604.44;85517;1322;99634;-74
2021/11/07 04:04:07;;;;;;;18.90;12.50;;;;;;;4.13;77.30;100605.52;85505;1322;87675;-74
2021/11/07 04:06:20;;;;;;;19.10;12.00;;;;;;;4.13;77.21;100600.40;85469;1322;95706;-75
2021/11/07 04:08:32;;;;;;;20.50;12.90;;;;;;;4.10;77.26;100601.52;85479;1320;81556;-74
2021/11/07 04:10:41;;;;;;;16.30;11.40;;;;;;;4.09;77.39;100592.21;85509;1322;80226;-74
2021/11/07 04:12:50;;;;;;;20.60;12.10;;;;;;;4.10;77.20;100584.77;85524;1322;99686;-74
2021/11/07 04:14:59;;;;;;;20.00;12.60;;;;;;;4.13;77.31;100588.43;85468;1322;89648;-72
2021/11/07 04:17:12;;;;;;;19.30;11.50;;;;;;;4.13;77.42;100597.50;85453;1322;96322;-74
2021/11/07 04:19:23;;;;;;;20.30;12.40;;;;;;;4.10;77.35;100599.55;85533;1325;80014;-74
2021/11/07 04:21:36;;;;;;;20.10;12.20;;;;;;;4.09;77.51;100597.94;85430;1324;82054;-73
2021/11/07 04:23:45;;;;;;;19.10;12.00;;;;;;;4.07;77.29;100601.86;85595;1320;98828;-73
2021/11/07 04:25:55;;;;;;;19.00;11.70;;;;;;;4.06;77.40;100602.45;85478;1322;88926;-73
2021/11/07 04:28:04;;;;;;;18.70;12.90;;;;;;;4.04;77.34;100596.73;85580;1326;95397;-73
2021/11/07 04:30:17;;;;;;;16.80;11.60;;;;;;;4.03;77.30;100595.97;85582;1319;77567;-74
2021/11/07 04:32:29;;;;;;;20.10;12.10;;;;;;;4.02;77.42;100591.26;85503;1322;83868;-76
2021/11/07 04:34:39;;;;;;;18.30;12.20;;;;;;;4.05;77.58;100588.48;85391;1322;99523;-74
2021/11/07 04:36:53;;;;;;;20.00;12.60;;;;;;;4.04;77.31;100586.92;85602;1319;88585;-75
2021/11/07 04:39:06;;;;;;;19.40;12.10;;;;;;;4.03;77.41;100579.55;85601;1319;96550;-74
2021/11/07 04:41:21;;;;;;;19.80;13.00;;;;;;;4.00;77.48;100579.03;85584;1319;81065;-74
2021/11/07 04:43:34;;;;;;;22.90;12.40;;;;;;;3.97;77.49;100575.84;85587;1320;81822;-74
2021/11/07 04:45:43;;;;;;;21.30;12.30;;;;;;;3.97;77.49;100569.44;85564;1319;98750;-74
2021/11/07 04:47:55;;;;;;;18.90;12.50;;;;;;;3.98;77.63;100561.02;85564;1319;88697;-74
2021/11/07 04:50:11;;;;;;;19.10;12.80;;;;;;;3.98;77.70;100560.98;85588;1319;93860;-74
2021/11/07 04:52:23;;;;;;;18.90;12.40;;;;;;;3.98;77.65;100556.26;85595;1323;77759;-74
2021/11/07 04:54:32;;;;;;;22.30;13.40;;;;;;;3.96;77.54;100557.84;85612;1320;84128;-74
2021/11/07 04:56:42;;;;;;;21.50;13.00;;;;;;;3.93;77.67;100552.39;85574;1320;99910;-74
2021/11/07 04:58:51;;;;;;;20.70;14.20;;;;;;;3.92;77.70;100546.58;85597;1322;87664;-73
2021/11/07 05:01:00;;;;;;;20.70;13.40;;;;;;;3.92;77.65;100542.02;85554;1319;94581;-74
2021/11/07 05:03:11;;;;;;;21.30;13.50;;;;;;;3.89;77.75;100540.98;85392;1319;226080;-74
2021/11/07 05:05:24;;;;;;;20.30;13.00;;;;;;;3.86;77.75;100534.89;85625;1319;80867;-74
2021/11/07 05:07:36;;;;;;;20.00;13.70;;;;;;;3.82;77.77;100533.25;85530;1322;97730;-74
2021/11/07 05:09:45;;;;;;;19.30;13.20;;;;;;;3.83;77.88;100527.86;85494;1322;89232;-74
2021/11/07 05:11:55;;;;;;;22.30;13.70;;;;;;;3.82;77.67;100519.92;85611;1323;95161;-74
2021/11/07 05:14:04;;;;;;;21.10;13.90;;;;;;;3.81;77.76;100523.27;85576;1323;80389;-73
2021/11/07 05:16:14;;;;;;;24.20;15.00;;;;;;;3.79;77.79;100521.81;85575;1322;82644;-73
2021/11/07 05:18:23;;;;;;;23.70;14.30;;;;;;;3.76;77.76;100520.58;85591;1322;99720;-74
2021/11/07 05:20:35;;;;;;;24.70;14.80;;;;;;;3.73;77.89;100512.58;85584;1319;88147;-75
2021/11/07 05:22:47;;;;;;;24.70;14.70;;;;;;;3.73;77.89;100504.80;85563;1319;94673;-75
2021/11/07 05:25:00;;;;;;;22.10;15.30;;;;;;;3.70;78.01;100501.67;85581;1323;81583;-74
2021/11/07 05:27:09;;;;;;;24.90;15.50;;;;;;;3.70;78.12;100498.49;85589;1319;82505;-75
2021/11/07 05:29:19;;;;;;;27.30;17.20;;;;;;;3.69;78.30;100496.40;85428;1322;99974;-74
2021/11/07 05:31:30;;;;;;;25.00;15.70;;;;;;;3.70;78.10;100489.02;85467;1322;88740;-74
2021/11/07 05:33:42;;;;;;;25.50;15.60;;;;;;;3.70;78.09;100488.33;85450;1322;95422;-74
2021/11/07 05:35:51;;;;;;;21.70;15.30;;;;;;;3.65;78.04;100499.61;85511;1322;78492;-74
2021/11/07 05:38:04;;;;;;;22.80;15.50;;;;;;;3.61;78.16;100493.25;85542;1322;82025;-73
2021/11/07 05:40:18;;;;;;;25.10;16.00;;;;;;;3.59;78.11;100493.84;85538;1320;96968;-73
2021/11/07 05:42:30;;;;;;;24.70;15.20;;;;;;;3.57;78.31;100491.34;85546;1322;87676;-73
2021/11/07 05:44:40;;;;;;;25.10;16.00;;;;;;;3.56;78.33;100495.86;85490;1322;95666;-72
2021/11/07 05:46:52;;;;;;;25.60;16.70;;;;;;;3.55;78.34;100496.81;85508;1326;80572;-74
2021/11/07 05:49:03;;;;;;;25.20;16.10;;;;;;;3.56;78.41;100496.97;85505;1326;80682;-74
2021/11/07 05:51:13;;;;;;;24.00;15.30;;;;;;;3.52;78.42;100495.88;85513;1322;100091;-74
2021/11/07 05:53:22;;;;;;;23.30;15.80;;;;;;;3.53;78.54;100496.35;85535;1325;88337;-74
2021/11/07 05:55:35;;;;;;;28.10;17.90;;;;;;;3.53;78.59;100486.52;85478;1322;95758;-75
2021/11/07 05:57:44;;;;;;;25.00;17.20;;;;;;;3.56;78.56;100486.45;85541;1326;79829;-74
2021/11/07 05:59:57;;;;;;;24.10;15.20;;;;;;;3.55;78.47;100484.02;85535;1325;80911;-74
2021/11/07 06:02:07;;;;;;;26.80;16.60;;;;;;;3.56;78.66;100480.37;85493;1325;97786;-74
2021/11/07 06:04:16;;;;;;;27.10;17.50;;;;;;;3.62;78.62;100477.69;85445;1322;88980;-74
2021/11/07 06:06:28;;;;;;;23.80;16.40;;;;;;;3.68;78.49;100476.73;85465;1322;95143;-75
2021/11/07 06:08:40;;;;;;;24.00;14.80;;;;;;;3.74;78.71;100469.60;85512;1325;77659;-73
2021/11/07 06:10:49;;;;;;;24.30;15.40;;;;;;;3.80;78.54;100467.02;85455;1322;82548;-73
2021/11/07 06:12:59;;;;;;;25.10;17.30;;;;;;;3.89;78.76;100468.64;85493;1327;99698;-73
2021/11/07 06:15:12;;;;;;;23.00;15.70;;;;;;;3.98;78.56;100465.54;85517;1322;88549;-74
2021/11/07 06:17:25;;;;;;;26.90;16.90;;;;;;;4.06;78.56;100466.00;85351;1322;94484;-74
2021/11/07 06:19:35;;;;;;;25.60;16.00;;;;;;;4.14;78.50;100457.55;85515;1323;78807;-74
2021/11/07 06:21:46;;;;;;;25.00;16.90;;;;;;;4.21;78.58;100449.39;85536;1325;80764;-75
2021/11/07 06:23:58;;;;;;;26.50;16.50;;;;;;;4.31;78.41;100446.27;85506;1321;99738;-74
2021/11/07 06:26:10;;;;;;;24.20;16.20;;;;;;;4.41;78.36;100439.04;85355;1322;89235;-73
2021/11/07 06:28:22;;;;;;;23.70;16.70;;;;;;;4.60;78.61;100442.54;85538;1325;93776;-73
2021/11/07 06:30:36;;;;;;;25.00;16.80;;;;;;;5.34;78.65;100435.09;85515;1322;76460;-73
2021/11/07 06:32:43;;;;;;;;;;;;;;;6.53;78.41;100426.57;85553;1328;81270;-74
2021/11/07 06:34:55;;;;;;;25.20;16.20;;;;;;;7.88;77.92;100422.68;85548;1322;99980;-74
2021/11/07 06:37:10;;;;;;;23.20;16.20;;;;;;;9.03;76.55;100423.15;85535;1322;88236;-73
2021/11/07 06:39:23;;;;;;;23.60;15.70;;;;;;;10.04;75.45;100419.23;85375;1322;95001;-73
2021/11/07 06:41:33;;;;;;;19.20;13.90;;;;;;;10.74;73.91;100415.04;85484;1323;80090;-75
2021/11/07 06:43:43;;;;;;;18.10;14.30;;;;;;;11.37;72.75;100421.36;85460;1322;82859;-75
2021/11/07 06:45:52;;;;;;;19.50;15.10;;;;;;;11.99;71.68;100413.91;85457;1325;100234;-73
2021/11/07 06:48:06;;;;;;;20.00;14.70;;;;;;;12.49;70.50;100406.23;85557;1323;89455;-73
2021/11/07 06:50:16;;;;;;;18.60;14.60;;;;;;;12.56;69.24;100403.90;85432;1327;93672;-76
2021/11/07 06:52:28;;;;;;;19.70;14.70;;;;;;;12.33;68.20;100401.44;85458;1322;79988;-75
2021/11/07 06:54:37;;;;;;;16.40;13.00;;;;;;;12.20;68.01;100401.41;85596;1322;80367;-76
2021/11/07 06:56:47;;;;;;;19.50;14.20;;;;;;;12.52;66.35;100401.41;85503;1322;100325;-73
2021/11/07 06:58:57;;;;;;;17.50;14.50;;;;;;;13.19;65.74;100402.10;85268;1325;89001;-72
2021/11/07 07:01:07;;;;;;;17.00;13.50;;;;;;;13.43;64.36;100402.94;85477;1322;94016;-75
2021/11/07 07:03:16;;;;;;;17.40;13.30;;;;;;;12.73;63.55;100398.16;85451;1322;79860;-75
2021/11/07 07:05:29;;;;;;;16.30;11.90;;;;;;;11.66;62.92;100390.73;85552;1320;81597;-71
2021/11/07 07:07:43;;;;;;;19.80;14.40;;;;;;;10.65;62.90;100388.85;85596;1319;97545;-73
2021/11/07 07:09:59;;;;;;;16.90;13.80;;;;;;;10.08;63.62;100378.40;85581;1322;89970;-74
2021/11/07 07:12:14;;;;;;;19.40;14.20;;;;;;;9.78;64.10;100374.55;85443;1326;95980;-73
2021/11/07 07:14:31;;;;;;;17.50;13.60;;;;;;;9.50;64.34;100378.90;85566;1320;78793;-73
2021/11/07 07:16:51;;;;;;;19.00;14.00;;;;;;;9.50;64.74;100374.94;85567;1320;81405;-73
2021/11/07 07:19:14;;;;;;;18.00;13.60;;;;;;;10.03;64.95;100368.05;85601;1323;99672;-74
2021/11/07 07:21:37;;;;;;;16.00;12.60;;;;;;;10.35;63.81;100367.77;85584;1319;87721;-73
2021/11/07 07:28:56;;;;;;;17.80;12.40;;;;;;;8.83;64.82;100362.95;85600;1319;83396;-73
2021/11/07 07:33:43;;;;;;;17.00;12.30;;;;;;;8.43;65.56;100350.08;85162;1326;86721;-72
2021/11/07 07:35:52;;;;;;;15.70;11.70;;;;;;;8.32;65.73;100348.92;85575;1319;95106;-75
2021/11/07 07:38:05;;;;;;;16.10;11.40;;;;;;;8.10;66.09;100343.48;85574;1319;79071;-74
2021/11/07 07:40:14;;;;;;;16.30;12.00;;;;;;;7.97;66.41;100336.90;85628;1319;82418;-75
2021/11/07 07:42:24;;;;;;;16.20;11.10;;;;;;;7.97;66.47;100332.98;85591;1319;100295;-75
2021/11/07 07:44:35;;;;;;;16.90;12.10;;;;;;;7.87;66.57;100332.14;85597;1319;88009;-74
2021/11/07 07:46:46;;;;;;;16.30;11.90;;;;;;;7.83;66.75;100335.52;85622;1320;93929;-73
2021/11/07 07:48:57;;;;;;;16.00;11.40;;;;;;;7.80;66.84;100328.63;85585;1319;79534;-74
2021/11/07 07:51:11;;;;;;;16.50;11.80;;;;;;;7.77;66.91;100324.33;85602;1319;82358;-72
2021/11/07 07:53:24;;;;;;;16.20;11.00;;;;;;;7.76;67.01;100322.12;85623;1324;99702;-73
2021/11/07 07:55:37;;;;;;;15.60;10.30;;;;;;;7.70;67.03;100315.80;85608;1321;86626;-74
2021/11/07 07:57:46;;;;;;;15.20;10.80;;;;;;;7.75;67.10;100315.04;85575;1320;92899;-75
2021/11/07 07:59:56;;;;;;;14.80;10.50;;;;;;;7.91;67.10;100311.11;85606;1325;77367;-76
2021/11/07 08:02:06;;;;;;;14.50;9.90;;;;;;;7.96;67.08;100316.91;85615;1319;81616;-74
2021/11/07 08:04:18;;;;;;;15.60;10.80;;;;;;;8.06;67.16;100317.64;85572;1322;98016;-74
2021/11/07 08:06:30;;;;;;;16.10;11.20;;;;;;;8.27;66.89;100318.52;85611;1320;87774;-74
2021/11/07 08:08:39;;;;;;;14.80;10.60;;;;;;;8.30;66.97;100310.86;85608;1319;94549;-76
2021/11/07 08:10:52;;;;;;;16.60;11.30;;;;;;;8.49;67.11;100306.83;85601;1322;79290;-74
2021/11/07 08:13:01;;;;;;;15.30;11.00;;;;;;;8.73;66.73;100303.44;85639;1320;81179;-75
2021/11/07 08:15:15;;;;;;;14.10;10.90;;;;;;;9.08;66.76;100292.97;85602;1319;99929;-74
2021/11/07 08:17:25;;;;;;;;;;;;;;;9.26;66.43;100295.09;85592;1319;87451;-76
2021/11/07 08:19:34;;;;;;;13.90;10.60;;;;;;;9.30;66.24;100284.77;85573;1319;95059;-75
2021/11/07 08:21:45;;;;;;;16.00;10.30;;;;;;;9.16;65.65;100278.58;85631;1323;78558;-73
2021/11/07 08:23:58;;;;;;;15.80;11.60;;;;;;;9.01;66.01;100278.93;85622;1319;80102;-72
2021/11/07 08:26:08;;;;;;;16.40;11.00;;;;;;;8.90;65.85;100274.17;85623;1320;99523;-73
2021/11/07 08:28:20;;;;;;;13.70;10.10;;;;;;;8.81;65.92;100267.14;85603;1319;88459;-73
2021/11/07 08:30:31;;;;;;;12.80;10.00;;;;;;;8.80;66.14;100266.17;85630;1325;95830;-76
2021/11/07 08:32:40;;;;;;;13.00;9.70;;;;;;;8.79;65.93;100259.31;85601;1320;78482;-76
2021/11/07 08:34:51;;;;;;;15.80;10.30;;;;;;;8.61;65.48;100258.22;85631;1320;81024;-75
2021/11/07 08:37:05;;;;;;;14.90;10.50;;;;;;;8.54;66.07;100251.30;85630;1320;100062;-73
2021/11/07 08:39:19;;;;;;;16.10;10.80;;;;;;;8.47;66.46;100251.42;85607;1320;89424;-75
2021/11/07 08:41:32;;;;;;;13.30;9.70;;;;;;;8.47;66.65;100251.12;85633;1323;95389;-76
2021/11/07 09:01:05;;;;;;;11.20;8.50;;;;;;;8.10;66.94;100219.91;85594;1324;101485;-75
2021/11/07 09:03:29;;;;;;;11.20;7.60;;;;;;;8.09;67.00;100218.56;85577;1319;88594;-68
2021/11/07 09:05:51;;;;;;;11.50;8.30;;;;;;;8.09;67.04;100215.36;85568;1320;94273;-72
2021/11/07 09:08:13;;;;;;;13.00;7.90;;;;;;;8.07;67.26;100204.98;85448;1322;79114;-72
2021/11/07 09:10:27;;;;;;;11.00;7.60;;;;;;;8.03;67.27;100196.32;85655;1323;83364;-76
2021/11/07 09:12:36;;;;;;;9.10;7.30;;;;;;;8.02;67.48;100193.27;85644;1320;99715;-75
2021/11/07 09:14:47;;;;;;;12.20;8.00;;;;;;;8.07;67.67;100193.95;85652;1313;86837;-77
2021/11/07 09:16:57;;;;;;;11.70;7.70;;;;;;;8.06;67.75;100194.36;85624;1323;93899;-76
2021/11/07 09:19:11;;;;;;;12.50;8.40;;;;;;;8.09;67.67;100194.60;85513;1323;80219;-72
2021/11/07 09:21:24;;;;;;;11.20;8.70;;;;;;;8.10;67.76;100200.14;85671;1318;80399;-74
2021/11/07 09:23:36;;;;;;;12.70;8.60;;;;;;;8.09;67.94;100191.30;85472;1322;99205;-72
2021/11/07 09:25:49;;;;;;;13.10;9.00;;;;;;;8.17;67.90;100190.17;85611;1319;89374;-74
2021/11/07 09:28:05;;;;;;;13.40;8.50;;;;;;;8.27;67.84;100183.06;85644;1320;95907;-70
2021/11/07 09:30:22;;;;;;;10.70;7.40;;;;;;;8.31;67.72;100178.57;85671;1320;79751;-71
2021/11/07 09:35:18;;;;;;;11.30;8.20;;;;;;;8.40;67.55;100160.73;85188;1320;100101;-69
2021/11/07 09:37:39;;;;;;;11.70;7.70;;;;;;;8.56;67.47;100153.29;85565;1326;87472;-69
2021/11/07 09:39:51;;;;;;;11.30;7.90;;;;;;;8.80;67.38;100149.48;85567;1320;94413;-73
2021/11/07 09:42:30;;;;;;;12.90;8.10;;;;;;;9.20;67.00;100145.05;85489;1321;80008;-72
2021/11/07 09:44:43;;;;;;;68.10;40.40;;;;;;;9.52;66.64;100136.10;85626;1319;82961;-74
2021/11/07 09:46:57;;;;;;;33.80;23.30;;;;;;;9.60;65.99;100135.13;85460;1326;99178;-71
2021/11/07 09:49:16;;;;;;;14.00;10.10;;;;;;;9.59;65.63;100132.52;85577;1319;87898;-72
2021/11/07 09:51:32;;;;;;;9.60;7.40;;;;;;;9.52;65.30;100124.94;85613;1319;94662;-76
2021/11/07 09:53:41;;;;;;;11.70;7.50;;;;;;;9.47;65.14;100117.42;85623;1323;77383;-76
2021/11/07 09:55:50;;;;;;;10.00;7.30;;;;;;;9.45;65.11;100109.84;85559;1322;79609;-73
2021/11/07 09:58:02;;;;;;;8.70;6.50;;;;;;;9.42;65.21;100101.17;85584;1323;98323;-74
2021/11/07 10:00:18;;;;;;;10.60;7.10;;;;;;;9.40;64.80;100095.05;85477;1322;87579;-74
2021/11/07 10:02:29;;;;;;;9.50;6.80;;;;;;;9.32;64.68;100088.61;85567;1323;92599;-73
2021/11/07 10:04:42;;;;;;;9.30;6.80;;;;;;;9.27;64.39;100072.17;85497;1322;78809;-72
2021/11/07 10:06:54;;;;;;;9.30;6.80;;;;;;;9.25;64.64;100083.92;85501;1325;83238;-75
2021/11/07 10:09:08;;;;;;;8.70;5.90;;;;;;;9.29;64.86;100082.56;85614;1326;98017;-74
2021/11/07 10:11:25;;;;;;;9.40;6.50;;;;;;;9.33;64.70;100080.01;85531;1325;89266;-73
2021/11/07 10:13:34;;;;;;;8.20;6.10;;;;;;;9.36;64.44;100087.96;85566;1320;94718;-71
2021/11/07 10:15:48;;;;;;;9.40;6.60;;;;;;;9.38;64.04;100084.08;85604;1319;77891;-76
2021/11/07 10:18:04;;;;;;;9.30;6.60;;;;;;;9.56;64.11;100079.77;85631;1320;83186;-74
2021/11/07 10:20:22;;;;;;;9.10;6.80;;;;;;;9.82;63.93;100077.64;85587;1319;100558;-74
2021/11/07 10:22:33;;;;;;;9.60;6.70;;;;;;;10.07;63.55;100074.63;85570;1319;89286;-64
2021/11/07 10:24:45;;;;;;;10.10;7.00;;;;;;;10.11;63.28;100071.45;85554;1319;96230;-73
2021/11/07 10:27:01;;;;;;;9.40;6.70;;;;;;;10.11;62.92;100063.88;85570;1319;77962;-73
2021/11/07 10:29:21;;;;;;;10.40;7.50;;;;;;;10.09;62.81;100059.61;85572;1320;81912;-73
2021/11/07 10:31:41;;;;;;;9.20;6.80;;;;;;;10.00;62.45;100052.33;85656;1319;100262;-72
2021/11/07 10:34:13;;;;;;;9.50;6.90;;;;;;;9.96;62.76;100041.54;85481;1322;89429;-73
2021/11/07 10:44:30;;;;;;;8.40;6.00;;;;;;;9.79;62.68;100029.80;85611;1320;99025;-73
2021/11/07 10:54:24;;;;;;;9.20;6.80;;;;;;;9.83;62.52;100008.16;85191;1325;80629;-74
2021/11/07 10:56:34;;;;;;;8.50;6.00;;;;;;;9.85;62.45;100006.20;85599;1323;98893;-73
2021/11/07 10:58:50;;;;;;;10.00;7.30;;;;;;;9.88;62.16;100000.04;85586;1319;88479;-73